createdAt,value
2019-05-12T00:00:28.865Z,102094.42
2019-05-12T00:02:59.371Z,102096.05
2019-05-12T00:05:28.056Z,102100.13
2019-05-12T00:07:58.735Z,102106.14
2019-05-12T00:10:28.325Z,102107.88
2019-05-12T00:12:58.170Z,102108.83
2019-05-12T00:15:27.967Z,102114.41
2019-05-12T00:17:58.709Z,102114.33
2019-05-12T00:20:28.381Z,102127.58
2019-05-12T00:23:05.131Z,102123.69
2019-05-12T00:25:33.573Z,102125.36
2019-05-12T00:28:02.001Z,102129.09
2019-05-12T00:30:41.029Z,102131.95
2019-05-12T00:33:09.735Z,102128.93
2019-05-12T00:35:38.353Z,102127.05
2019-05-12T00:38:09.045Z,102134.03
2019-05-12T00:40:39.885Z,102135.45
2019-05-12T00:43:09.175Z,102129.53
2019-05-12T00:45:38.732Z,102135.37
2019-05-12T00:48:09.019Z,102139.90
2019-05-12T00:50:38.327Z,102145.94
2019-05-12T00:53:08.971Z,102151.41
2019-05-12T00:55:38.075Z,102155.59
2019-05-12T00:58:08.808Z,102158.89
2019-05-12T01:00:41.671Z,102165.27
2019-05-12T01:03:18.824Z,102170.51
2019-05-12T01:05:48.555Z,102176.36
2019-05-12T01:08:18.680Z,102181.80
2019-05-12T01:10:47.914Z,102181.73
2019-05-12T01:13:18.399Z,102184.09
2019-05-12T01:15:48.171Z,102187.86
2019-05-12T01:18:18.131Z,102190.50
2019-05-12T01:20:47.929Z,102195.11
2019-05-12T01:23:18.684Z,102200.13
2019-05-12T01:25:47.779Z,102195.80
2019-05-12T01:28:18.370Z,102199.58
2019-05-12T01:30:47.959Z,102201.73
2019-05-12T01:33:18.426Z,102205.42
2019-05-12T01:35:48.276Z,102213.90
2019-05-12T01:38:18.235Z,102209.17
2019-05-12T01:40:47.924Z,102215.22
2019-05-12T01:43:20.669Z,102212.95
2019-05-12T01:45:48.289Z,102214.67
2019-05-12T01:48:18.377Z,102227.20
2019-05-12T01:50:47.564Z,102227.87
2019-05-12T01:53:18.135Z,102230.41
2019-05-12T01:55:48.343Z,102233.72
2019-05-12T01:58:19.059Z,102238.78
2019-05-12T02:00:48.303Z,102249.33
2019-05-12T02:03:17.863Z,102249.14
2019-05-12T02:05:48.575Z,102248.38
2019-05-12T02:08:18.646Z,102256.68
2019-05-12T02:10:51.138Z,102261.58
2019-05-12T02:13:19.031Z,102260.63
2019-05-12T02:15:48.605Z,102261.73
2019-05-12T02:18:17.837Z,102268.28
2019-05-12T02:20:48.183Z,102268.48
2019-05-12T02:23:17.861Z,102271.39
2019-05-12T02:25:48.325Z,102270.36
2019-05-12T02:28:18.003Z,102277.83
2019-05-12T02:30:49.961Z,102273.33
2019-05-12T02:33:17.039Z,102275.48
2019-05-12T02:35:45.441Z,102278.38
2019-05-12T02:38:14.624Z,102286.64
2019-05-12T02:40:44.916Z,102290.59
2019-05-12T02:43:15.378Z,102289.92
2019-05-12T02:45:46.024Z,102290.47
2019-05-12T02:48:14.734Z,102298.41
2019-05-12T02:50:45.228Z,102295.97
2019-05-12T02:53:14.520Z,102300.66
2019-05-12T02:55:44.984Z,102300.27
2019-05-12T02:58:16.166Z,102309.37
2019-05-12T03:00:45.860Z,102303.40
2019-05-12T03:03:16.322Z,102312.41
2019-05-12T03:05:46.786Z,102312.03
2019-05-12T03:08:15.569Z,102315.98
2019-05-12T03:10:45.833Z,102315.59
2019-05-12T03:13:15.043Z,102314.17
2019-05-12T03:15:44.572Z,102319.16
2019-05-12T03:18:14.693Z,102320.19
2019-05-12T03:20:45.453Z,102325.16
2019-05-12T03:23:15.717Z,102323.69
2019-05-12T03:25:45.595Z,102328.43
2019-05-12T03:28:15.892Z,102333.06
2019-05-12T03:30:48.404Z,102333.16
2019-05-12T03:33:19.489Z,102338.86
2019-05-12T03:35:52.272Z,102340.83
2019-05-12T03:38:17.281Z,102344.12
2019-05-12T03:40:45.695Z,102345.20
2019-05-12T03:43:14.735Z,102339.34
2019-05-12T03:45:45.249Z,102347.70
2019-05-12T03:48:14.876Z,102351.98
2019-05-12T03:50:46.132Z,102356.03
2019-05-12T03:53:15.441Z,102357.25
2019-05-12T03:55:47.026Z,102363.83
2019-05-12T03:58:15.453Z,102364.41
2019-05-12T04:00:44.992Z,102368.80
2019-05-12T04:03:15.366Z,102371.69
2019-05-12T04:05:45.229Z,102381.59
2019-05-12T04:08:15.850Z,102376.28
2019-05-12T04:10:45.412Z,102388.05
2019-05-12T04:13:15.105Z,102388.44
2019-05-12T04:15:45.471Z,102398.09
2019-05-12T04:18:16.033Z,102396.09
2019-05-12T04:20:45.306Z,102400.55
2019-05-12T04:23:16.254Z,102400.93
2019-05-12T04:25:52.216Z,102402.91
2019-05-12T04:28:18.836Z,102410.73
2019-05-12T04:30:46.539Z,102419.22
2019-05-12T04:33:15.722Z,102424.58
2019-05-12T04:35:45.163Z,102427.44
2019-05-12T04:38:14.885Z,102428.56
2019-05-12T04:40:44.936Z,102428.83
2019-05-12T04:43:15.000Z,102431.36
2019-05-12T04:45:45.189Z,102436.28
2019-05-12T04:48:15.538Z,102433.04
2019-05-12T04:50:45.238Z,102437.25
2019-05-12T04:53:15.262Z,102445.00
2019-05-12T04:55:44.577Z,102446.92
2019-05-12T04:58:15.810Z,102446.27
2019-05-12T05:00:44.834Z,102449.61
2019-05-12T05:03:14.223Z,102453.39
2019-05-12T05:05:44.350Z,102455.67
2019-05-12T05:08:14.514Z,102458.67
2019-05-12T05:10:44.344Z,102461.49
2019-05-12T05:13:14.884Z,102456.31
2019-05-12T05:15:44.609Z,102460.06
2019-05-12T05:18:13.475Z,102459.20
2019-05-12T05:20:43.838Z,102464.80
2019-05-12T05:23:14.226Z,102456.80
2019-05-12T05:25:43.453Z,102459.45
2019-05-12T05:28:14.322Z,102467.92
2019-05-12T05:30:44.114Z,102460.98
2019-05-12T05:33:14.475Z,102462.95
2019-05-12T05:35:43.610Z,102464.27
2019-05-12T05:38:19.076Z,102470.27
2019-05-12T05:40:46.361Z,102473.26
2019-05-12T05:43:18.518Z,102473.26
2019-05-12T05:45:45.361Z,102481.58
2019-05-12T05:48:13.775Z,102482.88
2019-05-12T05:50:43.837Z,102491.61
2019-05-12T05:53:15.476Z,102489.62
2019-05-12T05:55:44.230Z,102493.64
2019-05-12T05:58:12.708Z,102505.02
2019-05-12T06:00:43.440Z,102505.99
2019-05-12T06:03:14.601Z,102505.67
2019-05-12T06:05:43.354Z,102504.34
2019-05-12T06:08:18.669Z,102503.98
2019-05-12T06:10:46.028Z,102508.70
2019-05-12T06:13:21.104Z,102517.11
2019-05-12T06:15:47.232Z,102517.08
2019-05-12T06:18:15.650Z,102517.81
2019-05-12T06:20:44.060Z,102510.44
2019-05-12T06:23:14.761Z,102508.22
2019-05-12T06:25:47.389Z,102513.79
2019-05-12T06:28:15.255Z,102512.63
2019-05-12T06:30:46.611Z,102518.37
2019-05-12T06:33:14.429Z,102513.84
2019-05-12T06:35:45.378Z,102522.85
2019-05-12T06:38:13.604Z,102522.10
2019-05-12T06:40:46.067Z,102536.93
2019-05-12T06:43:14.960Z,102538.94
2019-05-12T06:45:45.671Z,102537.23
2019-05-12T06:48:14.166Z,102539.69
2019-05-12T06:50:44.141Z,102536.27
2019-05-12T06:53:13.943Z,102542.14
2019-05-12T06:55:43.265Z,102547.47
2019-05-12T06:58:13.999Z,102554.10
2019-05-12T07:00:43.720Z,102557.31
2019-05-12T07:03:14.318Z,102562.32
2019-05-12T07:05:45.102Z,102561.97
2019-05-12T07:08:20.143Z,102570.73
2019-05-12T07:10:46.061Z,102580.11
2019-05-12T07:13:14.758Z,102580.16
2019-05-12T07:15:44.076Z,102583.70
2019-05-12T07:18:17.743Z,102585.70
2019-05-12T07:20:46.748Z,102587.18
2019-05-12T07:23:19.729Z,102581.94
2019-05-12T07:25:45.354Z,102579.30
2019-05-12T07:28:14.403Z,102583.44
2019-05-12T07:30:44.059Z,102588.91
2019-05-12T07:33:14.648Z,102599.04
2019-05-12T07:35:44.577Z,102593.89
2019-05-12T07:38:21.281Z,102602.77
2019-05-12T07:40:49.180Z,102600.73
2019-05-12T07:43:20.643Z,102604.67
2019-05-12T07:45:56.658Z,102614.84
2019-05-12T07:48:23.150Z,102613.29
2019-05-12T07:50:56.395Z,102615.95
2019-05-12T07:53:23.264Z,102619.58
2019-05-12T07:55:53.232Z,102611.32
2019-05-12T07:58:23.989Z,102618.16
2019-05-12T08:01:02.438Z,102615.23
2019-05-12T08:03:26.143Z,102612.87
2019-05-12T08:05:57.453Z,102620.28
2019-05-12T08:08:25.822Z,102603.00
2019-05-12T08:10:56.031Z,102606.63
2019-05-12T08:13:24.549Z,102606.35
2019-05-12T08:15:56.448Z,102615.80
2019-05-12T08:18:24.703Z,102618.03
2019-05-12T08:20:53.920Z,102629.49
2019-05-12T08:23:23.437Z,102641.34
2019-05-12T08:25:53.968Z,102637.55
2019-05-12T08:28:27.830Z,102635.02
2019-05-12T08:30:54.830Z,102640.52
2019-05-12T08:33:24.179Z,102643.55
2019-05-12T08:35:55.190Z,102649.91
2019-05-12T08:38:24.874Z,102645.88
2019-05-12T08:40:55.395Z,102640.79
2019-05-12T08:43:24.216Z,102642.94
2019-05-12T08:45:53.603Z,102643.48
2019-05-12T08:48:25.138Z,102643.20
2019-05-12T08:50:54.683Z,102641.67
2019-05-12T08:53:26.124Z,102644.72
2019-05-12T08:55:54.770Z,102651.25
2019-05-12T08:58:33.959Z,102647.73
2019-05-12T09:00:55.355Z,102655.36
2019-05-12T09:03:27.139Z,102654.47
2019-05-12T09:05:54.279Z,102662.92
2019-05-12T09:08:24.274Z,102670.19
2019-05-12T09:10:55.394Z,102664.76
2019-05-12T09:13:23.504Z,102663.62
2019-05-12T09:15:53.992Z,102658.80
2019-05-12T09:18:28.348Z,102671.13
2019-05-12T09:20:57.677Z,102670.19
2019-05-12T09:23:27.109Z,102671.23
2019-05-12T09:25:57.426Z,102673.83
2019-05-12T09:28:43.599Z,102668.92
2019-05-12T09:30:59.685Z,102674.76
2019-05-12T09:33:34.486Z,102674.43
2019-05-12T09:36:05.421Z,102669.67
2019-05-12T09:38:33.859Z,102683.56
2019-05-12T09:41:03.262Z,102677.02
2019-05-12T09:43:40.145Z,102689.77
2019-05-12T09:46:07.072Z,102690.16
2019-05-12T09:48:39.199Z,102698.42
2019-05-12T09:51:08.163Z,102693.19
2019-05-12T09:53:50.755Z,102696.33
2019-05-12T09:56:13.788Z,102690.47
2019-05-12T09:58:43.615Z,102694.18
2019-05-12T10:01:15.161Z,102698.39
2019-05-12T10:03:43.943Z,102690.27
2019-05-12T10:06:17.982Z,102695.52
2019-05-12T10:08:43.981Z,102698.91
2019-05-12T10:11:16.674Z,102694.47
2019-05-12T10:13:44.943Z,102713.08
2019-05-12T10:16:13.696Z,102708.32
2019-05-12T10:18:45.371Z,102711.88
2019-05-12T10:21:15.384Z,102713.31
2019-05-12T10:23:44.727Z,102708.59
2019-05-12T10:26:14.694Z,102702.28
2019-05-12T10:28:51.802Z,102707.41
2019-05-12T10:31:13.997Z,102707.72
2019-05-12T10:33:43.287Z,102703.60
2019-05-12T10:36:11.762Z,102702.61
2019-05-12T10:38:40.171Z,102707.61
2019-05-12T10:41:08.649Z,102717.38
2019-05-12T10:43:37.071Z,102714.42
2019-05-12T10:46:06.297Z,102727.47
2019-05-12T10:48:34.765Z,102711.17
2019-05-12T10:51:04.117Z,102715.80
2019-05-12T10:53:34.132Z,102703.61
2019-05-12T10:56:06.550Z,102715.34
2019-05-12T10:58:35.066Z,102727.58
2019-05-12T11:01:05.215Z,102732.84
2019-05-12T11:03:33.834Z,102730.95
2019-05-12T11:06:07.300Z,102733.78
2019-05-12T11:08:33.293Z,102728.84
2019-05-12T11:11:05.484Z,102719.75
2019-05-12T11:13:34.394Z,102718.72
2019-05-12T11:16:04.202Z,102732.69
2019-05-12T11:18:34.102Z,102728.02
2019-05-12T11:21:03.595Z,102732.06
2019-05-12T11:23:34.456Z,102730.67
2019-05-12T11:26:04.030Z,102733.10
2019-05-12T11:28:33.656Z,102739.45
2019-05-12T11:31:02.662Z,102739.59
2019-05-12T11:33:34.074Z,102737.77
2019-05-12T11:36:04.418Z,102748.83
2019-05-12T11:38:35.847Z,102748.42
2019-05-12T11:41:10.121Z,102750.61
2019-05-12T11:43:36.466Z,102753.77
2019-05-12T11:46:05.373Z,102764.53
2019-05-12T11:48:34.009Z,102757.48
2019-05-12T11:51:03.931Z,102771.61
2019-05-12T11:53:35.650Z,102770.20
2019-05-12T11:56:07.684Z,102779.27
2019-05-12T11:58:33.512Z,102777.17
2019-05-12T12:01:08.149Z,102774.36
2019-05-12T12:03:34.037Z,102776.53
2019-05-12T12:06:02.550Z,102781.75
2019-05-12T12:08:33.777Z,102779.75
2019-05-12T12:11:04.024Z,102789.36
2019-05-12T12:13:35.467Z,102794.74
2019-05-12T12:16:06.819Z,102803.16
2019-05-12T12:18:34.033Z,102795.28
2019-05-12T12:21:07.788Z,102799.98
2019-05-12T12:23:40.886Z,102804.41
2019-05-12T12:26:10.521Z,102800.39
2019-05-12T12:28:43.502Z,102801.59
2019-05-12T12:31:13.288Z,102814.03
2019-05-12T12:33:47.256Z,102812.34
2019-05-12T12:36:16.853Z,102809.87
2019-05-12T12:38:47.899Z,102812.03
2019-05-12T12:41:16.455Z,102806.48
2019-05-12T12:43:47.069Z,102824.33
2019-05-12T12:46:21.446Z,102823.48
2019-05-12T12:48:51.445Z,102823.48
2019-05-12T12:51:19.855Z,102827.22
2019-05-12T12:53:48.379Z,102828.06
2019-05-12T12:56:25.105Z,102833.86
2019-05-12T12:58:50.921Z,102832.34
2019-05-12T13:01:28.731Z,102836.87
2019-05-12T13:03:59.250Z,102833.31
2019-05-12T13:06:28.108Z,102839.39
2019-05-12T13:08:56.634Z,102836.28
2019-05-12T13:11:33.197Z,102841.10
2019-05-12T13:13:55.547Z,102847.78
2019-05-12T13:16:26.443Z,102848.62
2019-05-12T13:18:54.854Z,102847.56
2019-05-12T13:21:23.400Z,102849.45
2019-05-12T13:23:54.002Z,102852.53
2019-05-12T13:26:23.904Z,102848.81
2019-05-12T13:28:54.857Z,102847.13
2019-05-12T13:31:24.343Z,102848.02
2019-05-12T13:33:54.694Z,102846.95
2019-05-12T13:36:24.191Z,102853.55
2019-05-12T13:38:52.760Z,102857.44
2019-05-12T13:41:21.258Z,102849.61
2019-05-12T13:43:54.434Z,102862.14
2019-05-12T13:46:19.847Z,102864.00
2019-05-12T13:48:49.879Z,102863.30
2019-05-12T13:51:18.484Z,102863.15
2019-05-12T13:53:50.332Z,102860.73
2019-05-12T13:56:25.773Z,102873.61
2019-05-12T13:58:50.958Z,102872.61
2019-05-12T14:01:20.847Z,102873.61
2019-05-12T14:03:50.923Z,102881.02
2019-05-12T14:06:22.976Z,102872.73
2019-05-12T14:08:53.841Z,102882.92
2019-05-12T14:11:23.879Z,102877.44
2019-05-12T14:13:52.808Z,102876.02
2019-05-12T14:16:23.996Z,102881.31
2019-05-12T14:18:57.014Z,102898.22
2019-05-12T14:21:24.463Z,102899.83
2019-05-12T14:23:53.251Z,102903.08
2019-05-12T14:26:24.110Z,102906.16
2019-05-12T14:28:53.325Z,102906.99
2019-05-12T14:31:29.238Z,102908.22
2019-05-12T14:33:53.884Z,102912.36
2019-05-12T14:36:26.658Z,102912.00
2019-05-12T14:38:53.550Z,102908.92
2019-05-12T14:41:26.544Z,102905.95
2019-05-12T14:44:01.732Z,102899.38
2019-05-12T14:46:29.870Z,102906.05
2019-05-12T14:49:20.437Z,102911.55
2019-05-12T14:51:49.165Z,102914.69
2019-05-12T14:54:23.868Z,102920.48
2019-05-12T14:56:53.692Z,102925.94
2019-05-12T14:59:24.303Z,102915.68
2019-05-12T15:01:58.992Z,102932.33
2019-05-12T15:04:27.844Z,102916.50
2019-05-12T15:06:53.458Z,102927.34
2019-05-12T15:09:24.553Z,102924.75
2019-05-12T15:11:52.429Z,102931.58
2019-05-12T15:14:26.735Z,102936.55
2019-05-12T15:16:55.804Z,102931.46
2019-05-12T15:19:27.771Z,102944.45
2019-05-12T15:21:54.440Z,102933.94
2019-05-12T15:24:24.564Z,102938.17
2019-05-12T15:26:57.517Z,102943.23
2019-05-12T15:29:23.605Z,102943.95
2019-05-12T15:31:56.316Z,102948.30
2019-05-12T15:34:23.822Z,102944.87
2019-05-12T15:36:56.066Z,102950.34
2019-05-12T15:39:23.707Z,102950.91
2019-05-12T15:41:56.613Z,102953.91
2019-05-12T15:44:30.469Z,102955.39
2019-05-12T15:46:53.542Z,102949.23
2019-05-12T15:49:27.217Z,102949.39
2019-05-12T15:51:58.548Z,102949.17
2019-05-12T15:54:26.646Z,102956.00
2019-05-12T15:56:55.774Z,102960.83
2019-05-12T15:59:24.303Z,102956.66
2019-05-12T16:01:57.292Z,102965.47
2019-05-12T16:04:23.545Z,102977.30
2019-05-12T16:06:57.095Z,102976.86
2019-05-12T16:09:23.774Z,102983.36
2019-05-12T16:11:52.306Z,102983.05
2019-05-12T16:14:23.259Z,102986.59
2019-05-12T16:16:54.863Z,102979.64
2019-05-12T16:19:26.337Z,102985.69
2019-05-12T16:21:55.660Z,102987.57
2019-05-12T16:24:27.145Z,102990.65
2019-05-12T16:26:54.297Z,102994.48
2019-05-12T16:29:23.318Z,102990.77
2019-05-12T16:31:54.599Z,103006.35
2019-05-12T16:34:23.392Z,102998.40
2019-05-12T16:36:54.581Z,102999.84
2019-05-12T16:39:30.553Z,102996.08
2019-05-12T16:42:00.162Z,102992.82
2019-05-12T16:44:26.535Z,102995.54
2019-05-12T16:46:57.832Z,102995.10
2019-05-12T16:49:33.171Z,102997.91
2019-05-12T16:51:57.831Z,103006.70
2019-05-12T16:54:26.273Z,103000.18
2019-05-12T16:57:00.141Z,103022.05
2019-05-12T16:59:25.990Z,103022.41
2019-05-12T17:01:54.457Z,103020.83
2019-05-12T17:04:27.236Z,103025.37
2019-05-12T17:06:55.649Z,103024.86
2019-05-12T17:09:24.647Z,103025.66
2019-05-12T17:11:55.733Z,103023.59
2019-05-12T17:14:28.461Z,103025.30
2019-05-12T17:16:58.769Z,103032.28
2019-05-12T17:19:27.236Z,103032.73
2019-05-12T17:21:59.481Z,103040.66
2019-05-12T17:24:26.119Z,103041.15
2019-05-12T17:26:54.559Z,103051.48
2019-05-12T17:29:24.234Z,103050.66
2019-05-12T17:31:53.526Z,103056.78
2019-05-12T17:34:26.196Z,103058.45
2019-05-12T17:36:56.075Z,103061.53
2019-05-12T17:39:29.368Z,103056.75
2019-05-12T17:42:00.585Z,103060.30
2019-05-12T17:44:31.130Z,103064.67
2019-05-12T17:46:59.131Z,103067.75
2019-05-12T17:49:30.935Z,103074.66
2019-05-12T17:52:04.474Z,103079.17
2019-05-12T17:54:30.281Z,103077.59
2019-05-12T17:57:01.186Z,103083.06
2019-05-12T17:59:29.565Z,103085.72
2019-05-12T18:01:58.038Z,103085.72
2019-05-12T18:04:30.383Z,103088.88
2019-05-12T18:06:56.617Z,103084.60
2019-05-12T18:09:26.105Z,103100.38
2019-05-12T18:11:56.270Z,103105.81
2019-05-12T18:14:27.816Z,103109.57
2019-05-12T18:17:02.830Z,103109.13
2019-05-12T18:19:25.110Z,103112.39
2019-05-12T18:21:56.565Z,103111.78
2019-05-12T18:24:27.037Z,103112.59
2019-05-12T18:27:00.132Z,103114.87
2019-05-12T18:29:25.014Z,103119.44
2019-05-12T18:31:55.609Z,103123.48
2019-05-12T18:34:25.307Z,103131.95
2019-05-12T18:36:56.267Z,103131.58
2019-05-12T18:39:24.408Z,103128.90
2019-05-12T18:41:55.679Z,103133.27
2019-05-12T18:44:30.911Z,103133.77
2019-05-12T18:46:54.297Z,103130.51
2019-05-12T18:49:23.861Z,103136.96
2019-05-12T18:51:55.088Z,103138.37
2019-05-12T18:54:28.736Z,103144.97
2019-05-12T18:57:02.567Z,103146.36
2019-05-12T18:59:28.432Z,103148.41
2019-05-12T19:01:57.896Z,103154.66
2019-05-12T19:04:27.388Z,103152.84
2019-05-12T19:06:57.664Z,103157.61
2019-05-12T19:09:29.034Z,103167.55
2019-05-12T19:11:58.392Z,103170.52
2019-05-12T19:14:34.941Z,103162.66
2019-05-12T19:16:57.531Z,103166.84
2019-05-12T19:19:26.246Z,103176.42
2019-05-12T19:22:05.125Z,103173.84
2019-05-12T19:24:27.603Z,103177.08
2019-05-12T19:26:56.010Z,103177.52
2019-05-12T19:29:29.538Z,103184.92
2019-05-12T19:31:57.995Z,103183.60
2019-05-12T19:34:26.427Z,103191.58
2019-05-12T19:36:55.002Z,103195.84
2019-05-12T19:39:26.400Z,103203.89
2019-05-12T19:41:55.618Z,103205.05
2019-05-12T19:44:30.747Z,103202.16
2019-05-12T19:47:03.139Z,103208.20
2019-05-12T19:49:46.875Z,103208.80
2019-05-12T19:52:08.567Z,103216.41
2019-05-12T19:54:41.096Z,103218.48
2019-05-12T19:57:12.931Z,103217.16
2019-05-12T19:59:42.010Z,103214.71
2019-05-12T20:02:09.128Z,103218.50
2019-05-12T20:04:43.195Z,103219.16
2019-05-12T20:07:07.798Z,103222.66
2019-05-12T20:09:36.205Z,103218.50
2019-05-12T20:12:15.652Z,103226.91
2019-05-12T20:14:38.706Z,103223.40
2019-05-12T20:17:07.133Z,103229.21
2019-05-12T20:19:35.544Z,103224.08
2019-05-12T20:22:08.551Z,103231.20
2019-05-12T20:24:37.024Z,103228.89
2019-05-12T20:27:10.572Z,103230.42
2019-05-12T20:29:38.904Z,103227.17
2019-05-12T20:32:07.322Z,103230.69
2019-05-12T20:34:49.109Z,103227.72
2019-05-12T20:37:13.353Z,103232.23
2019-05-12T20:39:38.801Z,103235.06
2019-05-12T20:42:07.262Z,103239.63
2019-05-12T20:44:35.703Z,103243.10
2019-05-12T20:47:06.950Z,103247.08
2019-05-12T20:49:35.416Z,103243.48
2019-05-12T20:52:09.013Z,103247.33
2019-05-12T20:54:34.713Z,103257.09
2019-05-12T20:57:07.834Z,103259.65
2019-05-12T20:59:33.843Z,103261.50
2019-05-12T21:02:03.638Z,103264.83
2019-05-12T21:04:37.462Z,103267.03
2019-05-12T21:07:04.562Z,103266.06
2019-05-12T21:09:34.780Z,103263.37
2019-05-12T21:12:02.672Z,103266.53
2019-05-12T21:14:33.307Z,103273.25
2019-05-12T21:17:03.042Z,103270.95
2019-05-12T21:19:35.690Z,103272.04
2019-05-12T21:22:04.013Z,103275.52
2019-05-12T21:24:37.699Z,103267.66
2019-05-12T21:27:03.846Z,103269.23
2019-05-12T21:29:33.869Z,103277.34
2019-05-12T21:32:11.563Z,103281.50
2019-05-12T21:34:34.468Z,103278.86
2019-05-12T21:37:06.655Z,103276.46
2019-05-12T21:39:35.234Z,103291.72
2019-05-12T21:42:06.214Z,103293.07
2019-05-12T21:44:34.665Z,103286.90
2019-05-12T21:47:09.488Z,103296.50
2019-05-12T21:49:35.881Z,103295.90
2019-05-12T21:52:06.748Z,103295.90
2019-05-12T21:54:39.575Z,103307.66
2019-05-12T21:57:07.902Z,103311.16
2019-05-12T21:59:39.649Z,103311.64
2019-05-12T22:02:06.949Z,103315.70
2019-05-12T22:04:41.345Z,103315.98
2019-05-12T22:07:06.938Z,103315.30
2019-05-12T22:09:41.645Z,103325.97
2019-05-12T22:12:06.964Z,103324.43
2019-05-12T22:14:39.340Z,103324.73
2019-05-12T22:17:07.735Z,103326.30
2019-05-12T22:19:38.159Z,103322.95
2019-05-12T22:22:06.290Z,103320.75
2019-05-12T22:24:38.749Z,103326.38
2019-05-12T22:27:05.253Z,103325.73
2019-05-12T22:29:34.422Z,103332.52
2019-05-12T22:32:05.123Z,103334.86
2019-05-12T22:34:39.787Z,103339.59
2019-05-12T22:37:05.091Z,103343.48
2019-05-12T22:39:34.181Z,103345.69
2019-05-12T22:42:04.761Z,103343.09
2019-05-12T22:44:34.748Z,103345.97
2019-05-12T22:47:11.351Z,103345.57
2019-05-12T22:49:34.582Z,103347.59
2019-05-12T22:52:06.820Z,103351.84
2019-05-12T22:54:35.297Z,103359.50
2019-05-12T22:57:04.207Z,103361.13
2019-05-12T22:59:40.306Z,103358.87
2019-05-12T23:02:08.446Z,103359.64
2019-05-12T23:04:40.302Z,103358.93
2019-05-12T23:07:09.678Z,103359.33
2019-05-12T23:09:39.811Z,103359.56
2019-05-12T23:12:18.107Z,103357.29
2019-05-12T23:14:41.101Z,103363.71
2019-05-12T23:17:09.509Z,103362.69
2019-05-12T23:19:42.970Z,103360.94
2019-05-12T23:22:08.095Z,103359.11
2019-05-12T23:24:40.620Z,103359.83
2019-05-12T23:27:08.895Z,103360.69
2019-05-12T23:29:37.957Z,103365.01
2019-05-12T23:32:11.768Z,103359.34
2019-05-12T23:34:36.700Z,103362.87
2019-05-12T23:37:05.109Z,103363.50
2019-05-12T23:39:37.997Z,103363.31
2019-05-12T23:42:04.481Z,103370.00
2019-05-12T23:44:33.500Z,103364.14
2019-05-12T23:47:04.076Z,103360.86
2019-05-12T23:49:33.731Z,103363.03
2019-05-12T23:52:03.836Z,103360.98
2019-05-12T23:54:34.429Z,103361.06
2019-05-12T23:57:03.888Z,103361.30
2019-05-12T23:59:33.390Z,103354.66
